Stations météo

réclame
Mon MeteoGroup
Zugspitze, Allemagne (10961): Température de l'air & dewpoint: 17.01.2020 19:00:00 - 23.01.2020 19:00:00 (CET)Zugspitze, Allemagne (10961): Vitesse du vent & gusts: 17.01.2020 19:00:00 - 23.01.2020 19:00:00 (CET)Zugspitze, Allemagne (10961): Direction du vent: 17.01.2020 19:00:00 - 23.01.2020 19:00:00 (CET)Zugspitze, Allemagne (10961): visibility: 17.01.2020 19:00:00 - 23.01.2020 19:00:00 (CET)Zugspitze, Allemagne (10961): Ensoleillement: 17.01.2020 19:00:00 - 23.01.2020 19:00:00 (CET)
Date & Time tt [°C] td [°C] ff [km/h] ff [knt] fx [km/h] fx [knt] dd vv [km] sd [min]
23.01.2020 19:00:00 -0,7 -21,4 26 14 37 20 SSW 75 0
23.01.2020 18:00:00 0,4 -23,0 26 14 32 17 SSW 75 8
23.01.2020 17:00:00 -0,4 -22,5 18 10 43 23 S 75 60
23.01.2020 16:00:00 -0,1 -22,1 34 18 45 24 S 66 60
23.01.2020 15:00:00 -0,1 -22,4 33 18 44 24 S 53 60
23.01.2020 14:00:00 0,5 -23,1 23 12 41 22 SW - 60
23.01.2020 13:00:00 0,6 -27,2 24 13 35 19 S - 60
23.01.2020 12:00:00 1,2 -25,0 19 11 27 15 S 74 60
23.01.2020 11:00:00 2,3 -25,1 4 2 6 4 SSE 75 60
23.01.2020 10:00:00 2,5 -24,7 7 4 14 8 S 75 60
23.01.2020 09:00:00 0,5 -24,5 13 7 16 8 SSE 75 56
23.01.2020 08:00:00 -0,4 -24,2 15 8 25 14 SSE 75 0
23.01.2020 07:00:00 -2,3 -24,2 23 12 26 14 SE 75 0
23.01.2020 06:00:00 -3,1 -22,1 24 13 26 14 ESE 75 0
23.01.2020 05:00:00 -2,2 -28,6 21 11 24 13 ESE 75 0
23.01.2020 04:00:00 -2,6 -21,7 18 10 21 11 E 75 0
23.01.2020 03:00:00 -2,3 -20,1 10 5 22 12 NE 75 0
23.01.2020 02:00:00 -2,5 -17,6 13 7 24 13 N 75 0
23.01.2020 01:00:00 -2,9 -14,8 8 4 14 8 NNW 75 0
23.01.2020 00:00:00 -2,9 -21,7 3 2 18 10 N 75 0
22.01.2020 23:00:00 -4,0 -19,7 16 9 20 11 N 75 0
22.01.2020 22:00:00 -3,8 -21,0 12 6 27 15 N 75 0
22.01.2020 21:00:00 -2,7 -22,2 14 8 29 15 NNW 75 0
22.01.2020 20:00:00 -2,6 -22,5 22 12 32 17 NNW 75 0
22.01.2020 19:00:00 -3,0 -21,8 24 13 37 20 NNW 75 0
22.01.2020 18:00:00 -2,1 -22,6 27 15 36 20 W 75 11
22.01.2020 17:00:00 -1,7 -21,9 23 12 29 16 WSW 75 60
22.01.2020 16:00:00 -1,4 -20,9 19 10 24 13 WSW 71 60
22.01.2020 15:00:00 -0,7 -21,4 19 10 35 19 WSW 75 60
22.01.2020 14:00:00 -0,4 -21,6 28 15 35 19 WSW 75 60
22.01.2020 13:00:00 -0,4 -23,4 27 15 32 18 WSW 75 60
22.01.2020 12:00:00 -0,1 -21,2 24 13 30 16 WSW 75 60
22.01.2020 11:00:00 -0,7 -21,3 24 13 30 16 WSW 75 60
22.01.2020 10:00:00 -1,3 -21,5 21 11 34 18 WSW 75 60
22.01.2020 09:00:00 -1,8 -20,8 24 13 39 21 WSW 72 48
22.01.2020 08:00:00 -2,2 -20,8 28 15 39 21 WSW 75 0
22.01.2020 07:00:00 -1,9 -20,1 20 11 37 20 WSW 75 0
22.01.2020 06:00:00 -3,1 -17,7 34 18 43 23 SW 75 0
22.01.2020 05:00:00 -1,9 -19,9 25 14 38 21 SW 75 0
22.01.2020 04:00:00 -1,7 -19,8 28 15 37 20 SW 75 0
22.01.2020 03:00:00 -2,3 -17,2 19 11 30 16 SW 75 0
22.01.2020 02:00:00 -2,0 -15,7 20 11 27 15 SW 75 0
22.01.2020 01:00:00 -2,8 -14,7 16 9 32 17 SSE 75 0
22.01.2020 00:00:00 -3,0 -14,6 24 13 34 18 SSE 75 0
21.01.2020 23:00:00 -2,6 -14,8 27 15 40 22 SSE 75 0
21.01.2020 22:00:00 -3,1 -16,1 27 14 48 26 SE 75 0
21.01.2020 21:00:00 -3,8 -17,9 31 17 40 22 SE 67 0
21.01.2020 20:00:00 -3,5 -20,4 25 14 32 18 SE 75 0
21.01.2020 19:00:00 -3,8 -20,8 21 11 30 16 ESE 75 0
21.01.2020 18:00:00 -3,6 -24,0 22 12 30 16 ESE 75 0
21.01.2020 17:00:00 -3,0 -24,6 21 11 27 15 ESE 75 37
21.01.2020 16:00:00 -2,7 -25,4 11 6 24 13 ESE 75 60
21.01.2020 15:00:00 -2,6 -25,6 14 7 20 11 ESE 75 60
21.01.2020 14:00:00 -1,5 -25,4 14 8 27 15 ESE 62 59
21.01.2020 13:00:00 -2,5 -22,5 14 8 23 12 ESE 71 60
21.01.2020 12:00:00 -2,3 -17,7 16 8 21 11 ESE 74 60
21.01.2020 11:00:00 -3,3 -17,9 15 8 28 15 ESE 75 60
21.01.2020 10:00:00 -3,3 -17,4 13 7 16 9 SE 75 60
21.01.2020 09:00:00 -3,9 -17,5 13 7 21 11 SE 75 55
21.01.2020 08:00:00 -4,7 -17,4 13 7 18 10 ESE 75 0
21.01.2020 07:00:00 -4,3 -16,7 7 4 19 11 ESE 75 0
21.01.2020 06:00:00 -5,2 -16,2 19 10 25 13 SE 75 0
21.01.2020 05:00:00 -5,6 -17,1 24 13 37 20 ESE 75 0
21.01.2020 04:00:00 -6,1 -17,0 34 19 39 21 ESE 62 0
21.01.2020 03:00:00 -6,2 -17,5 27 14 39 21 ESE 75 0
21.01.2020 02:00:00 -6,9 -17,5 29 16 40 21 ESE 72 0
21.01.2020 01:00:00 -7,6 -16,1 35 19 43 23 ESE 58 0
21.01.2020 00:00:00 -7,1 -13,1 27 15 31 17 ESE 75 0
20.01.2020 23:00:00 -7,1 -13,7 24 13 36 20 ESE 75 0
20.01.2020 22:00:00 -8,5 -13,4 30 16 45 24 SE 75 0
20.01.2020 21:00:00 -10,2 -16,3 34 19 41 22 SE 24 0
20.01.2020 20:00:00 -11,2 -19,1 32 17 37 20 ESE 63 0
20.01.2020 19:00:00 -12,9 -20,5 27 14 34 18 ESE 75 0
20.01.2020 18:00:00 -14,1 -21,1 26 14 34 18 SE 75 8
20.01.2020 17:00:00 -14,0 -22,7 23 12 28 15 SE 75 60
20.01.2020 16:00:00 -13,1 -24,8 19 10 29 16 SE 75 60
20.01.2020 15:00:00 -14,7 -21,8 29 16 34 18 ESE 75 60
20.01.2020 14:00:00 -14,1 -21,8 26 14 34 18 ESE 31 60
20.01.2020 13:00:00 -14,5 -21,5 28 15 40 22 ESE 52 60
20.01.2020 12:00:00 -14,8 -20,7 33 18 46 25 ESE 1,5 60
20.01.2020 11:00:00 -15,5 -20,2 29 16 48 26 ESE 8 60
20.01.2020 10:00:00 -16,6 -20,6 35 19 50 27 ESE 6 60
20.01.2020 09:00:00 -16,3 -20,5 28 15 48 26 E 1,6 51
20.01.2020 08:00:00 -17,1 -20,9 17 9 45 24 E 3,9 0
20.01.2020 07:00:00 -17,3 -22,0 29 16 49 26 E 6 0
20.01.2020 06:00:00 -18,1 -20,7 24 13 44 24 E 3,6 0
20.01.2020 05:00:00 -18,1 -19,9 16 9 37 20 E 0,3 0
20.01.2020 04:00:00 -18,2 -20,1 18 10 29 16 E 2,5 0
20.01.2020 03:00:00 -18,4 -20,1 11 6 32 17 E 11 0
20.01.2020 02:00:00 -18,6 -20,8 14 8 30 16 E 11 0
20.01.2020 01:00:00 -18,4 -20,6 16 9 31 17 E 0,7 0
20.01.2020 00:00:00 -18,7 -20,7 16 9 34 18 E 1,5 0
19.01.2020 23:00:00 -18,7 -20,7 14 8 29 16 E 3,4 0
19.01.2020 22:00:00 -18,7 -20,7 16 9 25 14 NE 0,8 0
19.01.2020 21:00:00 -18,4 -20,6 8 5 21 12 NNW 1,7 0
19.01.2020 20:00:00 -17,9 -19,9 11 6 22 12 N 0,1 0
19.01.2020 19:00:00 -18,1 -20,1 5 3 18 10 N 0,1 0
19.01.2020 18:00:00 -17,9 -19,8 9 5 21 11 N 0,8 0
19.01.2020 17:00:00 -17,9 -19,9 8 4 17 9 N 0,6 30
19.01.2020 16:00:00 -17,4 -19,9 8 5 15 8 N 7 4
19.01.2020 15:00:00 -16,6 -18,8 6 3 10 5 N 0,1 3
19.01.2020 14:00:00 -16,4 -18,3 3 2 21 12 N 0,3 0
19.01.2020 13:00:00 -17,2 -19,5 7 4 15 8 NNW 0,2 0
19.01.2020 12:00:00 -17,2 -19,2 6 3 19 11 NNW 0,1 0
19.01.2020 11:00:00 -17,7 -19,9 14 8 26 14 NNW 0,2 0
19.01.2020 10:00:00 -17,6 -19,4 8 4 11 6 N 0,1 0
19.01.2020 09:00:00 -17,1 -18,6 5 3 16 8 N 0,1 0
19.01.2020 08:00:00 -16,7 -18,4 7 4 12 7 NNW 0,1 0
19.01.2020 07:00:00 -16,3 -18,2 6 3 15 8 N 0,2 0
19.01.2020 06:00:00 -15,7 -17,1 4 2 9 5 NNE 0,2 0
19.01.2020 05:00:00 -15,5 -16,9 4 2 16 8 N 0,2 0
19.01.2020 04:00:00 -15,6 -17,0 5 3 14 8 NNW 0,1 0
19.01.2020 03:00:00 -15,7 -17,0 6 4 16 9 N 0,1 0
19.01.2020 02:00:00 -15,6 -17,1 9 5 21 11 NNW - 0
19.01.2020 01:00:00 -15,8 -17,3 7 4 18 10 NNW 0,1 0
19.01.2020 00:00:00 -15,9 -17,4 8 5 20 11 N 0,1 0
18.01.2020 23:00:00 -15,9 -17,5 10 5 21 12 NNW 0,1 0
18.01.2020 22:00:00 -15,4 -16,8 8 5 16 9 NW 0,1 0
18.01.2020 21:00:00 -14,9 -16,3 8 4 16 8 NNW - 0
18.01.2020 20:00:00 -14,8 -16,4 10 5 27 14 NNW - 0
18.01.2020 19:00:00 -15,0 -16,8 14 8 29 15 NW 0,1 0
18.01.2020 18:00:00 -14,6 -15,5 15 8 26 14 NW 0,1 0
18.01.2020 17:00:00 -13,9 -14,9 9 5 26 14 NNW - 0
18.01.2020 16:00:00 -13,3 -14,3 9 5 25 14 NNW 0,1 0
18.01.2020 15:00:00 -13,8 -15,0 15 8 36 20 WNW 0,1 0
18.01.2020 14:00:00 -14,4 -15,7 19 10 30 16 NNW 0,2 0
18.01.2020 13:00:00 -14,4 -16,0 21 11 35 19 NNW 0,2 0
18.01.2020 12:00:00 -14,3 -16,1 22 12 34 18 NNW 1,4 0
18.01.2020 11:00:00 -13,8 -15,6 19 10 34 18 NNW 0,1 0
18.01.2020 10:00:00 -13,3 -15,1 22 12 34 19 NNW 0,1 0
18.01.2020 09:00:00 -12,9 -14,1 8 4 17 9 NW 0,1 0
18.01.2020 08:00:00 -12,4 -13,6 9 5 32 17 NW 0,2 0
18.01.2020 07:00:00 -12,2 -13,7 16 9 27 15 NNW 0,1 0
18.01.2020 06:00:00 -11,3 -12,8 11 6 23 12 NNW 0,1 0
18.01.2020 05:00:00 -10,9 -12,3 12 7 22 12 NNW 0,1 0
18.01.2020 04:00:00 -10,4 -11,8 14 7 27 15 NNW 0,1 0
18.01.2020 03:00:00 -9,6 -11,0 12 7 24 13 NNW 0,1 0
18.01.2020 02:00:00 -9,2 -10,5 11 6 23 12 NW - 0
18.01.2020 01:00:00 -9,0 -10,1 16 8 23 12 WSW 2,2 0
18.01.2020 00:00:00 -8,4 -10,7 9 5 22 12 WSW 9 0
17.01.2020 23:00:00 -8,0 -10,5 11 6 22 12 WSW 75 0
17.01.2020 22:00:00 -8,2 -11,3 11 6 16 9 SW 68 0
17.01.2020 21:00:00 -9,0 -11,7 6 4 16 9 WSW 75 0
17.01.2020 20:00:00 -9,2 -11,3 10 5 16 9 WSW 75 0
17.01.2020 19:00:00 -8,9 -10,0 11 6 18 10 WSW 8 0

tt = Température de l'air
td = dewpoint
ff = Vitesse du vent
fx = gusts
dd = Direction du vent
vv = visibility
sd = Ensoleillement

stations d'obs. à proximité